Time;durP1;ratioP1;P1;durP2;ratioP2;P2;SDS_P1;SDS_P2;PMS_P1;PMS_P2;Temp;Humidity;BMP_temperature;BMP_pressure;BME280_temperature;BME280_humidity;BME280_pressure;Samples;Min_cycle;Max_cycle;Signal;HPM_P1;HPM_P2
2023/11/13 00:01:01;;;;;;;10.80;7.90;;;;;;;6.50;88.34;99503.55;130851;1259;108563;-77
2023/11/13 00:04:23;;;;;;;12.50;8.10;;;;;;;6.56;87.97;99501.64;130802;1258;108642;-77
2023/11/13 00:07:29;;;;;;;12.30;8.40;;;;;;;6.59;88.08;99503.44;130673;1259;107572;-76
2023/11/13 00:10:34;;;;;;;12.30;8.50;;;;;;;6.62;88.29;99506.16;130762;1263;108790;-77
2023/11/13 00:13:40;;;;;;;11.70;8.30;;;;;;;6.61;88.05;99511.13;130814;1253;108502;-78
2023/11/13 00:16:46;;;;;;;12.90;8.50;;;;;;;6.61;88.18;99514.53;130896;1253;107759;-77
2023/11/13 00:19:51;;;;;;;11.70;7.80;;;;;;;6.59;88.04;99512.61;130812;1258;106661;-78
2023/11/13 00:22:57;;;;;;;12.70;7.20;;;;;;;6.56;88.16;99510.92;130762;1259;107675;-77
2023/11/13 00:26:03;;;;;;;11.60;8.30;;;;;;;6.56;88.30;99513.96;130697;1259;107569;-77
2023/11/13 00:29:08;;;;;;;12.50;9.30;;;;;;;6.59;88.36;99516.70;130772;1258;107665;-77
2023/11/13 00:32:14;;;;;;;13.50;10.20;;;;;;;6.61;88.15;99521.95;130692;1259;106536;-79
2023/11/13 00:35:19;;;;;;;15.10;10.20;;;;;;;6.63;88.47;99528.33;130823;1254;107432;-78
2023/11/13 00:38:25;;;;;;;16.50;10.30;;;;;;;6.63;88.15;99530.92;130668;1261;107553;-78
2023/11/13 00:41:33;;;;;;;11.70;7.70;;;;;;;6.60;88.46;99535.27;130803;1258;108517;-78
2023/11/13 00:44:38;;;;;;;10.10;6.90;;;;;;;6.57;88.53;99526.96;130836;1259;109141;-79
2023/11/13 00:47:44;;;;;;;15.50;8.70;;;;;;;6.53;88.69;99527.14;130802;1259;108662;-77
2023/11/13 00:50:50;;;;;;;12.20;8.60;;;;;;;6.54;88.77;99528.67;130795;1257;108240;-78
2023/11/13 00:53:55;;;;;;;12.20;8.60;;;;;;;6.55;88.49;99530.30;130713;1257;108579;-80
2023/11/13 00:57:02;;;;;;;13.00;9.40;;;;;;;6.56;88.68;99531.96;130754;1259;106539;-81
2023/11/13 01:00:09;;;;;;;14.40;9.80;;;;;;;6.57;88.77;99535.42;130726;1259;106836;-80
2023/11/13 01:03:15;;;;;;;12.60;8.50;;;;;;;6.56;88.62;99542.09;130877;1259;108366;-78
2023/11/13 01:06:20;;;;;;;11.10;8.20;;;;;;;6.56;88.81;99544.34;130736;1257;108238;-77
2023/11/13 01:09:26;;;;;;;13.40;8.10;;;;;;;6.58;88.76;99548.06;130782;1253;108642;-76
2023/11/13 01:12:31;;;;;;;15.70;9.40;;;;;;;6.60;89.07;99549.61;130626;1259;107724;-77
2023/11/13 01:15:37;;;;;;;13.70;9.40;;;;;;;6.63;89.03;99550.52;130740;1259;107811;-77
2023/11/13 01:18:43;;;;;;;13.70;9.30;;;;;;;6.68;88.77;99548.66;130681;1259;108620;-77
2023/11/13 01:21:49;;;;;;;12.80;9.50;;;;;;;6.72;88.76;99543.02;130803;1259;108802;-78
2023/11/13 01:24:54;;;;;;;17.30;9.10;;;;;;;6.74;88.70;99544.86;130794;1254;108919;-77
2023/11/13 01:28:02;;;;;;;13.20;8.90;;;;;;;6.75;88.86;99540.80;130759;1258;107603;-77
2023/11/13 01:31:10;;;;;;;12.80;8.60;;;;;;;6.76;88.65;99543.95;130690;1259;108233;-77
2023/11/13 01:34:17;;;;;;;10.10;7.60;;;;;;;6.76;88.76;99546.21;130776;1259;107689;-78
2023/11/13 01:37:23;;;;;;;11.60;8.00;;;;;;;6.78;88.91;99545.83;130696;1259;106135;-78
2023/11/13 01:40:29;;;;;;;11.20;8.20;;;;;;;6.82;88.97;99540.65;130710;1259;107158;-77
2023/11/13 01:43:35;;;;;;;11.10;7.80;;;;;;;6.86;88.83;99539.23;130677;1259;106938;-77
2023/11/13 01:46:41;;;;;;;11.20;8.10;;;;;;;6.88;88.82;99540.79;130803;1257;106608;-78
2023/11/13 01:49:47;;;;;;;11.70;8.40;;;;;;;6.87;88.69;99543.33;130809;1260;106863;-77
2023/11/13 01:52:53;;;;;;;10.70;7.20;;;;;;;6.85;88.96;99546.02;130704;1260;107120;-77
2023/11/13 01:56:00;;;;;;;10.10;7.30;;;;;;;6.83;88.75;99543.98;130764;1254;108889;-76
2023/11/13 01:59:08;;;;;;;11.20;7.70;;;;;;;6.81;88.79;99543.23;130771;1253;108672;-78
2023/11/13 02:02:14;;;;;;;12.60;8.30;;;;;;;6.81;88.70;99539.54;130819;1260;108666;-77
2023/11/13 02:05:20;;;;;;;12.70;8.20;;;;;;;6.81;89.00;99539.34;130679;1258;107660;-77
2023/11/13 02:08:26;;;;;;;11.10;8.40;;;;;;;6.81;88.71;99541.83;130694;1259;108545;-77
2023/11/13 02:11:32;;;;;;;12.70;9.10;;;;;;;6.78;88.49;99543.16;130637;1261;107653;-79
2023/11/13 02:14:38;;;;;;;10.70;7.20;;;;;;;6.75;88.59;99538.31;130646;1259;107057;-79
2023/11/13 02:18:00;;;;;;;14.30;7.50;;;;;;;6.75;88.81;99537.10;130806;1259;107146;-77
2023/11/13 02:21:05;;;;;;;;;;;;;;;6.76;88.74;99536.63;130727;1254;107361;-78
2023/11/13 02:24:12;;;;;;;11.70;7.80;;;;;;;6.78;88.88;99539.27;130582;1254;107202;-78
2023/11/13 02:27:19;;;;;;;12.50;8.80;;;;;;;6.80;88.95;99540.52;130570;1254;107029;-79
2023/11/13 02:30:25;;;;;;;13.00;8.60;;;;;;;6.81;88.60;99536.36;130780;1259;108430;-79
2023/11/13 02:33:31;;;;;;;12.50;9.00;;;;;;;6.80;88.60;99535.69;130684;1259;106764;-78
2023/11/13 02:36:37;;;;;;;11.80;7.90;;;;;;;6.77;88.73;99534.78;130759;1259;108089;-78
2023/11/13 02:39:42;;;;;;;11.60;7.40;;;;;;;6.74;88.68;99537.70;130735;1254;108666;-79
2023/11/13 02:42:48;;;;;;;12.20;8.30;;;;;;;6.73;88.87;99540.44;130683;1259;108671;-79
2023/11/13 02:45:54;;;;;;;11.40;8.30;;;;;;;6.75;88.93;99542.62;130926;1259;108033;-79
2023/11/13 02:49:01;;;;;;;11.30;8.10;;;;;;;6.78;88.71;99545.13;130746;1259;107426;-78
2023/11/13 02:52:07;;;;;;;12.00;8.20;;;;;;;6.78;88.54;99541.98;130639;1257;106498;-78
2023/11/13 02:55:14;;;;;;;14.50;8.30;;;;;;;6.75;88.31;99540.49;130680;1259;105757;-77
2023/11/13 02:58:19;;;;;;;11.60;8.40;;;;;;;6.71;88.48;99539.61;130727;1254;106667;-79
2023/11/13 03:01:25;;;;;;;11.30;7.40;;;;;;;6.65;88.46;99544.37;130805;1259;107721;-79
2023/11/13 03:04:31;;;;;;;9.30;7.20;;;;;;;6.59;88.73;99547.27;130660;1259;108089;-77
2023/11/13 03:07:37;;;;;;;12.60;7.80;;;;;;;6.56;88.60;99551.10;130712;1254;108620;-77
2023/11/13 03:10:42;;;;;;;10.10;7.60;;;;;;;6.55;88.64;99555.06;130757;1254;108834;-77
2023/11/13 03:13:48;;;;;;;10.30;7.30;;;;;;;6.56;88.78;99553.38;130813;1259;105813;-77
2023/11/13 03:16:53;;;;;;;11.10;8.40;;;;;;;6.56;88.40;99548.82;130803;1259;108711;-77
2023/11/13 03:19:59;;;;;;;14.30;10.30;;;;;;;6.54;88.50;99542.95;130818;1254;108404;-77
2023/11/13 03:23:05;;;;;;;61.80;35.40;;;;;;;6.50;88.48;99543.48;130764;1254;106506;-77
2023/11/13 03:26:10;;;;;;;38.40;21.70;;;;;;;6.46;88.58;99539.11;130671;1257;106884;-78
2023/11/13 03:29:16;;;;;;;61.00;33.30;;;;;;;6.44;88.57;99537.55;130715;1257;106972;-77
2023/11/13 03:32:21;;;;;;;15.90;11.20;;;;;;;6.43;88.73;99534.14;130794;1269;107396;-79
2023/11/13 03:35:27;;;;;;;23.60;14.50;;;;;;;6.45;88.77;99531.08;131049;1258;106601;-79
2023/11/13 03:38:33;;;;;;;15.30;10.40;;;;;;;6.48;88.82;99531.49;130828;1257;106771;-75
2023/11/13 03:41:38;;;;;;;14.70;10.50;;;;;;;6.49;88.70;99531.17;130754;1257;108612;-74
2023/11/13 03:44:44;;;;;;;17.70;10.50;;;;;;;6.52;88.67;99532.73;130755;1259;108951;-79
2023/11/13 03:47:49;;;;;;;16.80;11.50;;;;;;;6.53;88.50;99533.67;130823;1259;108457;-74
2023/11/13 03:50:55;;;;;;;13.90;10.30;;;;;;;6.53;88.76;99532.31;130849;1254;106478;-74
2023/11/13 03:54:01;;;;;;;12.20;8.60;;;;;;;6.49;88.52;99536.31;130858;1258;106995;-74
2023/11/13 03:57:07;;;;;;;10.90;8.50;;;;;;;6.48;88.68;99538.61;131064;1254;107934;-74
2023/11/13 04:00:15;;;;;;;11.80;8.40;;;;;;;6.48;88.79;99537.02;130714;1259;107317;-74
2023/11/13 04:03:21;;;;;;;11.20;8.00;;;;;;;6.50;88.86;99539.80;130896;1254;106785;-74
2023/11/13 04:06:26;;;;;;;12.40;8.40;;;;;;;6.51;88.53;99540.05;130813;1258;109480;-74
2023/11/13 04:09:34;;;;;;;10.20;7.90;;;;;;;6.52;88.56;99536.30;130693;1267;107570;-74
2023/11/13 04:12:40;;;;;;;11.70;8.80;;;;;;;6.49;88.64;99530.16;130749;1254;107287;-74
2023/11/13 04:15:47;;;;;;;20.50;15.00;;;;;;;6.46;88.38;99533.09;130894;1258;108775;-74
2023/11/13 04:18:52;;;;;;;15.50;11.00;;;;;;;6.43;88.77;99534.08;130618;1260;107852;-74
2023/11/13 04:21:58;;;;;;;15.40;11.20;;;;;;;6.40;88.54;99535.59;130754;1259;108824;-74
2023/11/13 04:25:03;;;;;;;13.90;10.30;;;;;;;6.42;88.67;99539.84;130820;1258;108583;-74
2023/11/13 04:28:09;;;;;;;14.40;9.10;;;;;;;6.43;88.76;99538.31;130843;1260;107534;-74
2023/11/13 04:31:18;;;;;;;12.20;9.30;;;;;;;6.45;88.85;99535.33;130841;1259;107652;-74
2023/11/13 04:34:23;;;;;;;13.30;9.40;;;;;;;6.47;88.37;99537.77;130805;1267;107778;-74
2023/11/13 04:37:29;;;;;;;13.10;9.80;;;;;;;6.45;88.28;99535.71;130819;1267;108500;-74
2023/11/13 04:40:35;;;;;;;110.60;46.20;;;;;;;6.41;88.63;99531.67;130765;1259;106929;-75
2023/11/13 04:43:40;;;;;;;37.30;19.40;;;;;;;6.37;88.38;99535.34;130735;1254;108641;-75
2023/11/13 04:46:46;;;;;;;21.00;11.40;;;;;;;6.35;88.14;99536.43;130822;1259;107713;-74
2023/11/13 04:49:52;;;;;;;16.30;10.50;;;;;;;6.36;88.23;99542.58;130754;1267;108813;-74
2023/11/13 04:52:57;;;;;;;72.90;34.10;;;;;;;6.37;88.35;99543.12;130741;1255;107738;-74
2023/11/13 04:56:03;;;;;;;93.10;41.50;;;;;;;6.41;88.36;99547.38;130792;1258;108610;-74
2023/11/13 04:59:09;;;;;;;32.30;17.60;;;;;;;6.43;88.10;99551.60;130822;1258;107789;-74
2023/11/13 05:02:15;;;;;;;17.20;10.30;;;;;;;6.43;88.05;99545.79;130813;1254;107172;-74
2023/11/13 05:05:20;;;;;;;13.50;9.50;;;;;;;6.41;88.19;99543.62;130804;1259;106818;-74
2023/11/13 05:08:27;;;;;;;11.00;8.00;;;;;;;6.37;88.00;99545.58;130735;1259;107667;-74
2023/11/13 05:11:33;;;;;;;12.30;8.50;;;;;;;6.34;88.21;99548.00;130658;1259;106762;-74
2023/11/13 05:14:42;;;;;;;13.50;8.50;;;;;;;6.29;88.06;99554.47;130793;1259;107572;-75
2023/11/13 05:17:47;;;;;;;13.60;8.90;;;;;;;6.28;88.14;99550.09;130781;1258;107320;-74
2023/11/13 05:20:53;;;;;;;13.50;9.80;;;;;;;6.27;87.85;99550.39;130756;1259;105553;-74
2023/11/13 05:23:59;;;;;;;14.40;9.10;;;;;;;6.26;87.69;99553.64;130671;1254;107617;-74
2023/11/13 05:27:05;;;;;;;10.70;7.80;;;;;;;6.23;87.69;99555.87;130776;1258;107802;-74
2023/11/13 05:30:13;;;;;;;17.60;11.70;;;;;;;6.19;87.49;99559.84;130744;1259;108469;-75
2023/11/13 05:33:20;;;;;;;37.60;20.10;;;;;;;6.12;87.21;99556.73;130869;1258;105629;-74
2023/11/13 05:36:25;;;;;;;177.90;83.70;;;;;;;6.03;87.38;99561.45;130738;1260;107612;-74
2023/11/13 05:39:31;;;;;;;119.70;53.50;;;;;;;5.95;87.17;99569.58;130726;1259;107475;-74
2023/11/13 05:42:38;;;;;;;75.20;35.00;;;;;;;5.88;87.41;99572.10;130715;1259;108678;-74
2023/11/13 05:45:44;;;;;;;386.60;169.90;;;;;;;5.86;87.12;99587.15;130778;1258;108599;-74
2023/11/13 05:48:49;;;;;;;450.70;193.80;;;;;;;5.85;86.94;99582.33;130840;1260;107571;-74
2023/11/13 05:51:55;;;;;;;355.30;120.60;;;;;;;5.82;87.00;99584.70;130904;1254;107759;-74
2023/11/13 05:55:00;;;;;;;371.80;140.40;;;;;;;5.79;86.88;99584.27;130806;1259;107777;-73
2023/11/13 05:58:06;;;;;;;330.00;122.70;;;;;;;5.75;86.78;99584.11;130838;1254;106829;-73
2023/11/13 06:01:12;;;;;;;510.60;225.30;;;;;;;5.70;86.63;99586.34;130879;1260;107764;-74
2023/11/13 06:04:18;;;;;;;102.40;40.10;;;;;;;5.64;86.71;99586.80;130728;1260;107039;-74
2023/11/13 06:07:24;;;;;;;26.30;14.40;;;;;;;5.58;86.77;99590.89;130778;1259;108690;-74
2023/11/13 06:10:29;;;;;;;15.20;9.30;;;;;;;5.52;86.76;99587.02;130610;1260;107669;-73
2023/11/13 06:13:36;;;;;;;108.50;55.40;;;;;;;5.49;86.61;99593.59;130680;1267;107105;-75
2023/11/13 06:16:41;;;;;;;68.10;36.50;;;;;;;5.50;86.61;99594.80;130787;1258;107807;-75
2023/11/13 06:19:47;;;;;;;86.20;46.10;;;;;;;5.49;86.62;99596.06;130700;1260;108500;-74
2023/11/13 06:22:52;;;;;;;27.80;16.40;;;;;;;5.48;86.58;99599.17;130700;1260;107777;-74
2023/11/13 06:25:58;;;;;;;23.30;14.30;;;;;;;5.47;86.50;99601.40;130799;1260;109273;-74
2023/11/13 06:29:03;;;;;;;18.10;10.30;;;;;;;5.45;86.64;99599.27;130763;1258;108630;-74
2023/11/13 06:32:10;;;;;;;14.70;9.70;;;;;;;5.43;86.49;99597.33;130802;1259;107646;-74
2023/11/13 06:35:16;;;;;;;14.40;9.40;;;;;;;5.40;86.28;99593.94;130899;1254;108793;-75
2023/11/13 06:38:21;;;;;;;11.70;8.00;;;;;;;5.38;86.57;99597.13;130757;1259;108509;-74
2023/11/13 06:41:27;;;;;;;15.60;9.70;;;;;;;5.36;86.37;99600.61;130623;1259;107718;-75
2023/11/13 06:44:32;;;;;;;25.70;13.80;;;;;;;5.37;86.43;99603.90;130727;1261;108061;-75
2023/11/13 06:47:38;;;;;;;38.10;18.30;;;;;;;5.43;86.44;99599.83;130770;1267;108502;-76
2023/11/13 06:50:44;;;;;;;75.30;29.40;;;;;;;5.51;86.58;99603.76;130768;1267;106898;-76
2023/11/13 06:53:49;;;;;;;58.00;24.70;;;;;;;5.56;86.41;99603.64;130732;1264;107507;-76
2023/11/13 06:56:55;;;;;;;93.00;48.00;;;;;;;5.61;86.45;99599.81;130787;1267;107676;-75
2023/11/13 07:00:00;;;;;;;31.90;20.60;;;;;;;5.65;85.97;99607.42;130851;1259;107559;-75
2023/11/13 07:03:06;;;;;;;60.90;35.60;;;;;;;5.68;86.27;99612.42;130813;1260;106992;-74
2023/11/13 07:06:12;;;;;;;24.20;14.30;;;;;;;5.71;86.69;99616.57;130686;1267;108712;-74
2023/11/13 07:09:17;;;;;;;97.70;37.40;;;;;;;5.75;86.24;99620.42;130801;1264;108556;-74
2023/11/13 07:12:29;;;;;;;240.30;103.30;;;;;;;5.85;86.32;99623.11;130923;1260;107651;-75
2023/11/13 07:15:38;;;;;;;138.50;59.50;;;;;;;5.95;86.42;99618.70;130940;1267;108038;-75
2023/11/13 07:18:45;;;;;;;120.80;46.00;;;;;;;6.04;86.17;99619.27;130795;1260;106472;-73
2023/11/13 07:21:51;;;;;;;93.00;35.10;;;;;;;6.13;85.95;99615.30;130729;1259;106393;-76
2023/11/13 07:24:56;;;;;;;60.90;27.60;;;;;;;6.19;86.29;99613.10;130815;1258;107558;-75
2023/11/13 07:28:02;;;;;;;67.10;28.90;;;;;;;6.24;86.02;99614.80;130831;1259;107394;-75
2023/11/13 07:31:08;;;;;;;139.70;53.10;;;;;;;6.27;85.76;99614.85;130768;1258;108311;-75
2023/11/13 07:34:13;;;;;;;254.80;87.30;;;;;;;6.28;85.71;99608.27;130845;1261;108609;-76
2023/11/13 07:37:19;;;;;;;291.00;87.60;;;;;;;6.30;85.85;99608.42;130742;1260;106709;-75
2023/11/13 07:40:26;;;;;;;39.40;22.00;;;;;;;6.35;86.07;99614.20;130679;1260;107820;-76
2023/11/13 07:43:31;;;;;;;24.50;16.10;;;;;;;6.41;86.01;99615.39;130700;1260;108623;-76
2023/11/13 07:46:37;;;;;;;20.90;13.30;;;;;;;6.51;85.82;99621.37;130764;1258;108648;-77
2023/11/13 07:49:43;;;;;;;31.00;18.50;;;;;;;6.63;85.81;99628.29;130771;1254;106845;-76
2023/11/13 07:52:50;;;;;;;24.30;16.60;;;;;;;6.76;85.44;99630.91;130704;1267;108707;-75
2023/11/13 07:55:57;;;;;;;21.90;13.80;;;;;;;6.85;85.02;99634.43;130676;1259;107086;-74
2023/11/13 07:59:05;;;;;;;29.00;16.50;;;;;;;6.93;84.86;99630.46;130826;1265;107924;-74
2023/11/13 08:02:12;;;;;;;31.10;16.00;;;;;;;7.00;85.09;99629.96;130785;1258;107607;-73
2023/11/13 08:05:18;;;;;;;35.40;18.30;;;;;;;7.08;84.69;99628.73;130778;1260;108596;-73
2023/11/13 08:08:24;;;;;;;49.60;24.40;;;;;;;7.09;84.69;99633.04;130736;1254;107510;-73
2023/11/13 08:11:29;;;;;;;28.90;14.60;;;;;;;7.12;84.51;99638.08;130726;1267;106906;-73
2023/11/13 08:14:35;;;;;;;23.70;11.80;;;;;;;7.13;84.29;99641.33;130693;1260;108593;-73
2023/11/13 08:17:42;;;;;;;15.50;10.20;;;;;;;7.19;84.83;99642.01;130837;1260;107585;-74
2023/11/13 08:20:48;;;;;;;23.20;12.10;;;;;;;7.27;84.21;99644.10;130872;1257;108752;-74
2023/11/13 08:23:53;;;;;;;25.30;12.70;;;;;;;7.35;84.50;99648.64;130849;1267;106187;-73
2023/11/13 08:26:59;;;;;;;20.80;12.50;;;;;;;7.45;84.21;99650.29;130740;1260;106557;-73
2023/11/13 08:30:07;;;;;;;15.20;10.10;;;;;;;7.55;84.21;99650.94;130939;1267;107682;-75
2023/11/13 08:33:13;;;;;;;19.30;11.40;;;;;;;7.62;83.82;99649.00;130967;1257;108109;-73
2023/11/13 08:36:23;;;;;;;20.80;11.40;;;;;;;7.69;83.76;99649.43;130961;1254;107366;-73
2023/11/13 08:39:29;;;;;;;19.50;11.40;;;;;;;7.72;83.54;99649.29;130801;1258;108758;-74
2023/11/13 08:42:37;;;;;;;17.40;10.90;;;;;;;7.78;83.60;99643.23;130712;1259;106294;-73
2023/11/13 08:45:44;;;;;;;17.80;10.60;;;;;;;7.88;83.67;99649.20;130737;1257;106727;-74
2023/11/13 08:48:50;;;;;;;22.40;13.30;;;;;;;7.98;83.40;99650.86;130792;1259;107711;-73
2023/11/13 08:51:58;;;;;;;25.30;12.40;;;;;;;8.07;83.43;99650.14;130647;1260;108665;-73
2023/11/13 08:55:04;;;;;;;14.30;8.70;;;;;;;8.13;82.92;99645.27;130805;1254;107665;-73
2023/11/13 08:58:10;;;;;;;15.00;8.80;;;;;;;8.23;83.09;99634.23;130706;1257;107650;-74
2023/11/13 09:01:16;;;;;;;16.80;10.70;;;;;;;8.37;82.97;99634.94;130699;1258;107527;-74
2023/11/13 09:04:22;;;;;;;37.40;23.80;;;;;;;8.49;82.91;99629.34;130640;1260;107065;-73
2023/11/13 09:07:28;;;;;;;17.30;11.70;;;;;;;8.58;82.62;99626.80;130680;1254;106430;-74
2023/11/13 09:10:34;;;;;;;17.70;12.30;;;;;;;8.60;82.16;99627.33;130680;1267;108637;-76
2023/11/13 09:13:39;;;;;;;15.10;10.40;;;;;;;8.56;81.55;99629.31;130813;1264;107235;-74
2023/11/13 09:16:45;;;;;;;20.60;13.50;;;;;;;8.52;82.19;99630.41;130764;1259;106983;-74
2023/11/13 09:19:51;;;;;;;12.50;8.40;;;;;;;8.52;82.07;99631.51;130668;1261;108249;-73
2023/11/13 09:22:56;;;;;;;10.90;7.70;;;;;;;8.51;81.63;99631.98;130692;1267;107684;-73
2023/11/13 09:26:02;;;;;;;13.10;7.90;;;;;;;8.43;81.21;99634.47;130706;1258;108421;-73
2023/11/13 09:29:08;;;;;;;11.80;7.60;;;;;;;8.41;81.74;99632.91;130724;1260;107905;-74
2023/11/13 09:32:14;;;;;;;13.10;9.00;;;;;;;8.44;81.73;99635.17;130798;1254;107524;-75
2023/11/13 09:35:22;;;;;;;15.30;9.10;;;;;;;8.42;81.38;99635.34;130769;1258;106531;-73
2023/11/13 09:38:31;;;;;;;11.90;8.40;;;;;;;8.40;81.34;99632.45;130742;1257;106716;-75
2023/11/13 09:41:39;;;;;;;10.00;6.90;;;;;;;8.40;80.99;99633.88;130687;1260;107151;-74
2023/11/13 09:44:47;;;;;;;10.10;6.90;;;;;;;8.44;81.40;99637.57;130758;1254;107464;-74
2023/11/13 09:48:00;;;;;;;11.50;7.40;;;;;;;8.48;81.02;99638.07;130820;1257;106731;-74
2023/11/13 09:51:08;;;;;;;11.40;8.60;;;;;;;8.51;80.96;99637.59;130740;1260;108696;-75
2023/11/13 09:54:15;;;;;;;21.00;11.40;;;;;;;8.52;79.87;99637.56;130700;1261;106854;-75
2023/11/13 09:57:22;;;;;;;28.20;13.40;;;;;;;8.38;80.22;99636.92;130781;1257;107605;-74
2023/11/13 10:00:32;;;;;;;36.70;17.20;;;;;;;8.33;80.32;99639.05;130786;1261;106537;-73
2023/11/13 10:03:38;;;;;;;17.20;9.90;;;;;;;8.30;80.27;99644.90;130842;1257;107982;-74
2023/11/13 10:06:52;;;;;;;34.40;15.40;;;;;;;8.26;80.29;99644.38;130811;1259;108786;-73
2023/11/13 10:10:06;;;;;;;34.70;13.70;;;;;;;8.29;80.61;99645.52;130738;1261;108788;-75
2023/11/13 10:13:12;;;;;;;225.90;56.80;;;;;;;8.32;80.42;99648.38;130800;1254;107699;-73
2023/11/13 10:16:22;;;;;;;30.70;14.00;;;;;;;8.32;80.21;99649.23;130780;1259;107965;-73
2023/11/13 10:19:28;;;;;;;50.60;28.60;;;;;;;8.29;80.07;99645.79;130825;1257;108602;-74
2023/11/13 10:22:34;;;;;;;93.90;46.60;;;;;;;8.29;79.99;99642.17;130717;1254;107873;-74
2023/11/13 10:25:46;;;;;;;68.30;29.00;;;;;;;8.28;80.10;99637.41;130892;1254;106913;-74
2023/11/13 10:28:51;;;;;;;;;;;;;;;8.29;80.21;99637.31;130870;1254;108512;-75
2023/11/13 10:31:58;;;;;;;40.60;18.70;;;;;;;8.34;79.89;99633.94;130853;1257;109035;-74
2023/11/13 10:35:09;;;;;;;36.90;16.80;;;;;;;8.39;79.06;99635.77;131009;1259;106697;-78
2023/11/13 10:38:15;;;;;;;59.90;30.40;;;;;;;8.43;79.80;99637.71;130881;1254;106960;-78
2023/11/13 10:41:27;;;;;;;133.30;52.20;;;;;;;8.53;79.60;99640.92;130756;1267;106353;-79
2023/11/13 10:44:38;;;;;;;78.20;34.50;;;;;;;8.63;79.47;99640.70;130758;1257;210092;-79
2023/11/13 10:47:49;;;;;;;20.20;10.80;;;;;;;8.75;79.41;99639.08;130884;1260;107701;-79
2023/11/13 10:50:58;;;;;;;22.30;13.10;;;;;;;8.85;79.04;99639.81;130702;1254;107587;-79
2023/11/13 10:54:08;;;;;;;58.20;25.20;;;;;;;8.91;78.77;99638.25;130961;1257;106545;-78
2023/11/13 10:57:14;;;;;;;23.30;12.30;;;;;;;8.91;78.93;99632.30;130710;1260;106810;-79
2023/11/13 11:00:20;;;;;;;20.30;11.30;;;;;;;8.87;78.89;99627.45;130858;1254;107809;-79
2023/11/13 11:03:32;;;;;;;10.30;6.70;;;;;;;8.85;79.08;99624.98;130948;1257;108068;-79
2023/11/13 11:06:41;;;;;;;12.10;7.20;;;;;;;8.93;78.96;99626.63;131060;1264;108411;-79
2023/11/13 11:09:47;;;;;;;8.90;6.10;;;;;;;9.03;79.00;99623.98;130760;1261;108083;-78
2023/11/13 11:13:00;;;;;;;9.00;5.70;;;;;;;9.08;78.83;99621.44;130754;1258;106630;-79
2023/11/13 11:16:24;;;;;;;6.80;5.20;;;;;;;9.03;78.07;99622.20;130826;1254;107519;-78
2023/11/13 11:19:35;;;;;;;7.60;5.50;;;;;;;9.00;77.81;99616.61;130720;1254;107008;-78
2023/11/13 11:22:48;;;;;;;8.30;5.50;;;;;;;9.02;77.62;99621.08;130766;1254;109411;-79
2023/11/13 11:25:54;;;;;;;6.80;4.80;;;;;;;9.13;78.06;99621.13;130738;1254;108411;-78
2023/11/13 11:29:00;;;;;;;8.30;5.40;;;;;;;9.27;77.49;99621.33;130741;1254;108427;-79
2023/11/13 11:32:21;;;;;;;9.00;5.10;;;;;;;9.38;77.03;99615.20;130807;1253;107699;-78
2023/11/13 11:35:30;;;;;;;8.30;5.40;;;;;;;9.49;77.18;99611.55;130711;1253;108623;-78
2023/11/13 11:38:35;;;;;;;6.70;5.10;;;;;;;9.63;76.88;99605.52;130715;1254;106897;-78
2023/11/13 11:41:42;;;;;;;8.30;5.00;;;;;;;9.75;76.84;99601.19;130729;1254;108407;-78
2023/11/13 11:45:03;;;;;;;6.90;5.00;;;;;;;9.80;76.53;99599.08;130871;1257;107579;-80
2023/11/13 11:48:11;;;;;;;8.30;5.30;;;;;;;9.86;76.68;99592.61;131060;1254;106713;-78
2023/11/13 11:51:23;;;;;;;7.40;5.40;;;;;;;9.83;76.33;99589.62;130754;1257;106937;-79
2023/11/13 11:54:30;;;;;;;6.00;4.80;;;;;;;9.79;76.00;99584.41;130743;1254;107619;-79
2023/11/13 11:57:36;;;;;;;7.20;4.80;;;;;;;9.71;75.92;99580.60;130872;1260;108603;-77
2023/11/13 12:00:44;;;;;;;8.00;5.30;;;;;;;9.71;75.71;99581.60;130750;1255;107610;-79
2023/11/13 12:03:53;;;;;;;9.40;5.80;;;;;;;9.74;74.94;99577.48;130784;1254;106780;-78
2023/11/13 12:06:59;;;;;;;7.30;4.60;;;;;;;9.70;74.75;99573.81;130673;1260;107638;-78
2023/11/13 12:10:08;;;;;;;6.60;4.80;;;;;;;9.77;75.62;99578.39;130731;1254;108562;-78
2023/11/13 12:13:14;;;;;;;8.50;5.20;;;;;;;9.90;74.59;99573.80;130758;1258;106708;-78
2023/11/13 12:16:19;;;;;;;6.50;4.50;;;;;;;9.93;73.82;99571.00;130697;1254;107555;-79
2023/11/13 12:19:25;;;;;;;6.20;4.60;;;;;;;9.92;75.01;99567.57;130732;1257;107711;-78
2023/11/13 12:22:32;;;;;;;5.50;4.00;;;;;;;10.02;75.09;99562.23;130714;1254;107627;-78
2023/11/13 12:25:38;;;;;;;7.60;4.70;;;;;;;10.14;74.59;99565.22;130783;1254;109517;-78
2023/11/13 12:28:46;;;;;;;7.10;4.30;;;;;;;10.12;74.51;99560.80;130796;1254;106710;-78
2023/11/13 12:31:57;;;;;;;5.50;4.20;;;;;;;10.13;74.57;99562.15;130772;1257;106734;-79
2023/11/13 12:35:04;;;;;;;6.00;3.50;;;;;;;10.18;73.89;99559.61;130777;1267;108713;-78
2023/11/13 12:38:10;;;;;;;7.00;3.60;;;;;;;10.15;74.29;99562.75;130734;1254;108542;-78
2023/11/13 12:41:18;;;;;;;4.60;3.40;;;;;;;10.04;74.10;99571.61;130773;1267;106648;-78
2023/11/13 12:44:24;;;;;;;5.20;3.40;;;;;;;9.89;73.70;99573.57;130779;1254;107465;-79
2023/11/13 12:47:30;;;;;;;5.30;3.90;;;;;;;9.76;73.63;99570.15;130753;1260;107221;-78
2023/11/13 12:50:38;;;;;;;7.10;3.70;;;;;;;9.63;73.92;99566.94;130665;1257;107665;-78
2023/11/13 12:53:50;;;;;;;7.50;4.50;;;;;;;9.50;73.91;99569.21;130671;1254;106700;-78
2023/11/13 12:56:55;;;;;;;5.60;4.10;;;;;;;9.34;73.69;99564.34;130752;1257;108536;-79
2023/11/13 13:00:03;;;;;;;5.80;4.20;;;;;;;9.22;74.06;99559.58;130899;1254;107403;-78
2023/11/13 13:03:11;;;;;;;5.70;3.70;;;;;;;9.17;73.92;99559.52;130756;1258;108516;-78
2023/11/13 13:06:17;;;;;;;7.20;4.60;;;;;;;9.14;73.98;99558.09;130695;1259;108323;-78
2023/11/13 13:09:24;;;;;;;5.80;4.10;;;;;;;9.08;73.55;99556.40;130815;1258;106857;-78
2023/11/13 13:12:31;;;;;;;6.90;4.50;;;;;;;9.01;73.85;99561.90;130687;1254;107917;-78
2023/11/13 13:15:37;;;;;;;5.30;4.20;;;;;;;8.98;73.67;99563.08;130712;1257;106269;-78
2023/11/13 13:18:45;;;;;;;6.10;4.00;;;;;;;9.01;73.75;99563.82;130817;1260;106650;-79
2023/11/13 13:21:50;;;;;;;5.60;4.10;;;;;;;9.08;73.68;99564.55;130677;1254;108507;-78
2023/11/13 13:24:56;;;;;;;9.10;5.60;;;;;;;9.18;73.63;99562.63;130694;1257;107722;-79
2023/11/13 13:28:04;;;;;;;7.70;4.70;;;;;;;9.28;73.64;99562.48;130606;1253;106803;-78
2023/11/13 13:31:09;;;;;;;8.80;5.40;;;;;;;9.33;73.11;99553.63;130680;1257;107566;-78
2023/11/13 13:34:17;;;;;;;7.20;4.60;;;;;;;9.28;73.30;99555.20;130678;1257;108086;-78
2023/11/13 13:37:23;;;;;;;7.60;5.00;;;;;;;9.16;73.08;99559.66;130698;1257;107829;-78
2023/11/13 13:40:29;;;;;;;6.80;4.80;;;;;;;9.05;72.86;99562.74;130692;1254;107459;-78
2023/11/13 13:43:34;;;;;;;9.30;5.30;;;;;;;8.96;73.06;99566.73;130640;1258;107179;-79
2023/11/13 13:46:40;;;;;;;16.40;9.90;;;;;;;8.87;73.23;99567.60;130802;1254;106461;-80
2023/11/13 13:49:54;;;;;;;10.40;7.70;;;;;;;8.79;73.12;99565.42;130968;1257;109350;-82
2023/11/13 13:53:02;;;;;;;36.00;27.00;;;;;;;8.72;72.78;99562.45;130961;1260;107584;-80
2023/11/13 13:56:13;;;;;;;213.30;112.90;;;;;;;8.64;72.79;99559.86;130942;1257;106467;-79
2023/11/13 13:59:22;;;;;;;248.90;133.10;;;;;;;8.57;72.79;99555.63;130720;1257;106636;-78
2023/11/13 14:31:10;;;;;;;352.40;125.30;;;;;;;8.00;73.03;99546.20;128377;1284;649538;-79
2023/11/13 14:34:16;;;;;;;127.80;47.30;;;;;;;7.99;73.08;99541.63;130336;1261;193495;-79
2023/11/13 14:37:24;;;;;;;57.10;22.70;;;;;;;8.01;73.08;99544.11;130660;1263;107134;-79
2023/11/13 14:40:30;;;;;;;69.70;26.90;;;;;;;7.99;73.28;99548.85;130564;1262;108705;-79
2023/11/13 14:43:36;;;;;;;109.10;45.40;;;;;;;7.97;73.03;99544.15;130581;1267;106465;-79